sensor_id;sensor_type;location;lat;lon;timestamp;pressure;altitude;pressure_sealevel;temperature;humidity
5350;BME280;2697;42.144;24.794;2023-04-28T00:00:24;155494.13;;;11.35;60.18
5350;BME280;2697;42.144;24.794;2023-04-28T00:02:49;155504.69;;;11.39;59.81
5350;BME280;2697;42.144;24.794;2023-04-28T00:05:15;155486.22;;;11.32;59.26
5350;BME280;2697;42.144;24.794;2023-04-28T00:07:40;155506.00;;;11.39;58.83
5350;BME280;2697;42.144;24.794;2023-04-28T00:10:06;155511.25;;;11.41;58.02
5350;BME280;2697;42.144;24.794;2023-04-28T00:12:32;155506.00;;;11.39;58.10
5350;BME280;2697;42.144;24.794;2023-04-28T00:14:57;155494.13;;;11.35;58.25
5350;BME280;2697;42.144;24.794;2023-04-28T00:17:22;155533.66;;;11.50;57.11
5350;BME280;2697;42.144;24.794;2023-04-28T00:19:49;155513.88;;;11.42;57.10
5350;BME280;2697;42.144;24.794;2023-04-28T00:22:14;155521.81;;;11.46;57.18
5350;BME280;2697;42.144;24.794;2023-04-28T00:24:40;155541.56;;;11.53;56.36
5350;BME280;2697;42.144;24.794;2023-04-28T00:27:06;155523.16;;;11.46;56.79
5350;BME280;2697;42.144;24.794;2023-04-28T00:29:31;155553.44;;;11.58;56.83
5350;BME280;2697;42.144;24.794;2023-04-28T00:31:57;155488.84;;;11.33;57.74
5350;BME280;2697;42.144;24.794;2023-04-28T00:34:22;155445.38;;;11.16;59.18
5350;BME280;2697;42.144;24.794;2023-04-28T00:36:48;155425.66;;;11.08;59.44
5350;BME280;2697;42.144;24.794;2023-04-28T00:39:14;155390.06;;;10.95;59.96
5350;BME280;2697;42.144;24.794;2023-04-28T00:41:40;155357.16;;;10.82;60.78
5350;BME280;2697;42.144;24.794;2023-04-28T00:44:06;155333.44;;;10.73;61.18
5350;BME280;2697;42.144;24.794;2023-04-28T00:46:32;155299.19;;;10.60;61.68
5350;BME280;2697;42.144;24.794;2023-04-28T00:48:58;155243.91;;;10.38;62.42
5350;BME280;2697;42.144;24.794;2023-04-28T00:51:23;155246.53;;;10.39;63.05
5350;BME280;2697;42.144;24.794;2023-04-28T00:53:49;155183.31;;;10.15;65.02
5350;BME280;2697;42.144;24.794;2023-04-28T00:56:15;155179.31;;;10.13;65.17
5350;BME280;2697;42.144;24.794;2023-04-28T00:58:42;155222.81;;;10.30;64.76
5350;BME280;2697;42.144;24.794;2023-04-28T01:01:08;155216.25;;;10.27;64.97
5350;BME280;2697;42.144;24.794;2023-04-28T01:03:35;155296.56;;;10.59;63.57
5350;BME280;2697;42.144;24.794;2023-04-28T01:06:04;155275.47;;;10.50;63.37
5350;BME280;2697;42.144;24.794;2023-04-28T01:08:30;155266.28;;;10.47;63.39
5350;BME280;2697;42.144;24.794;2023-04-28T01:10:56;155250.47;;;10.41;64.33
5350;BME280;2697;42.144;24.794;2023-04-28T01:13:21;155229.41;;;10.33;64.67
5350;BME280;2697;42.144;24.794;2023-04-28T01:15:47;155204.38;;;10.23;65.70
5350;BME280;2697;42.144;24.794;2023-04-28T01:18:13;155207.06;;;10.24;65.71
5350;BME280;2697;42.144;24.794;2023-04-28T01:20:40;155176.69;;;10.12;66.08
5350;BME280;2697;42.144;24.794;2023-04-28T01:23:11;155170.13;;;10.10;66.33
5350;BME280;2697;42.144;24.794;2023-04-28T01:25:36;155145.13;;;10.00;66.95
5350;BME280;2697;42.144;24.794;2023-04-28T01:28:02;155143.81;;;9.99;66.78
5350;BME280;2697;42.144;24.794;2023-04-28T01:30:27;155126.69;;;9.93;68.18
5350;BME280;2697;42.144;24.794;2023-04-28T01:32:53;155146.44;;;10.00;67.33
5350;BME280;2697;42.144;24.794;2023-04-28T01:35:18;155112.25;;;9.87;67.72
5350;BME280;2697;42.144;24.794;2023-04-28T01:37:43;155059.56;;;9.67;69.54
5350;BME280;2697;42.144;24.794;2023-04-28T01:40:09;155041.19;;;9.60;70.14
5350;BME280;2697;42.144;24.794;2023-04-28T01:42:35;155038.56;;;9.59;70.13
5350;BME280;2697;42.144;24.794;2023-04-28T01:45:01;155021.44;;;9.52;71.62
5350;BME280;2697;42.144;24.794;2023-04-28T01:47:27;154996.44;;;9.42;72.40
5350;BME280;2697;42.144;24.794;2023-04-28T01:49:52;155042.50;;;9.60;72.70
5350;BME280;2697;42.144;24.794;2023-04-28T01:52:18;155031.94;;;9.56;72.85
5350;BME280;2697;42.144;24.794;2023-04-28T01:54:45;155001.69;;;9.45;73.58
5350;BME280;2697;42.144;24.794;2023-04-28T01:57:10;155004.31;;;9.46;73.59
5350;BME280;2697;42.144;24.794;2023-04-28T01:59:36;155012.19;;;9.49;73.69
5350;BME280;2697;42.144;24.794;2023-04-28T02:02:01;155025.38;;;9.54;73.34
5350;BME280;2697;42.144;24.794;2023-04-28T02:04:26;154997.75;;;9.43;73.84
5350;BME280;2697;42.144;24.794;2023-04-28T02:06:52;154981.94;;;9.37;74.40
5350;BME280;2697;42.144;24.794;2023-04-28T02:09:17;154976.69;;;9.35;73.99
5350;BME280;2697;42.144;24.794;2023-04-28T02:11:42;155012.19;;;9.49;73.17
5350;BME280;2697;42.144;24.794;2023-04-28T02:14:08;155033.25;;;9.57;72.45
5350;BME280;2697;42.144;24.794;2023-04-28T02:16:33;155025.38;;;9.54;71.60
5350;BME280;2697;42.144;24.794;2023-04-28T02:18:58;155028.00;;;9.55;71.78
5350;BME280;2697;42.144;24.794;2023-04-28T02:21:24;155006.94;;;9.47;72.10
5350;BME280;2697;42.144;24.794;2023-04-28T02:23:50;155017.50;;;9.51;72.06
5350;BME280;2697;42.144;24.794;2023-04-28T02:26:16;155020.13;;;9.52;71.61
5350;BME280;2697;42.144;24.794;2023-04-28T02:28:41;155012.19;;;9.49;70.89
5350;BME280;2697;42.144;24.794;2023-04-28T02:31:08;155029.31;;;9.55;70.21
5350;BME280;2697;42.144;24.794;2023-04-28T02:33:35;155059.56;;;9.67;69.74
5350;BME280;2697;42.144;24.794;2023-04-28T02:36:02;155055.63;;;9.65;69.82
5350;BME280;2697;42.144;24.794;2023-04-28T02:38:28;155075.38;;;9.73;69.39
5350;BME280;2697;42.144;24.794;2023-04-28T02:41:00;155056.94;;;9.66;68.53
5350;BME280;2697;42.144;24.794;2023-04-28T02:43:30;155042.50;;;9.60;69.59
5350;BME280;2697;42.144;24.794;2023-04-28T02:45:56;155041.19;;;9.60;69.03
5350;BME280;2697;42.144;24.794;2023-04-28T02:48:22;155039.88;;;9.59;68.73
5350;BME280;2697;42.144;24.794;2023-04-28T02:50:47;155068.81;;;9.70;67.75
5350;BME280;2697;42.144;24.794;2023-04-28T02:53:13;155041.19;;;9.60;67.79
5350;BME280;2697;42.144;24.794;2023-04-28T02:55:39;155024.06;;;9.53;67.62
5350;BME280;2697;42.144;24.794;2023-04-28T02:58:04;155067.50;;;9.70;67.59
5350;BME280;2697;42.144;24.794;2023-04-28T03:00:30;155054.31;;;9.65;67.06
5350;BME280;2697;42.144;24.794;2023-04-28T03:02:55;155035.88;;;9.58;67.33
5350;BME280;2697;42.144;24.794;2023-04-28T03:05:20;155033.25;;;9.57;66.54
5350;BME280;2697;42.144;24.794;2023-04-28T03:07:46;155014.88;;;9.50;66.69
5350;BME280;2697;42.144;24.794;2023-04-28T03:10:12;154996.44;;;9.42;67.52
5350;BME280;2697;42.144;24.794;2023-04-28T03:12:37;155012.19;;;9.49;66.62
5350;BME280;2697;42.144;24.794;2023-04-28T03:15:03;154980.63;;;9.36;67.33
5350;BME280;2697;42.144;24.794;2023-04-28T03:17:29;154974.06;;;9.34;67.58
5350;BME280;2697;42.144;24.794;2023-04-28T03:19:54;154993.81;;;9.41;66.68
5350;BME280;2697;42.144;24.794;2023-04-28T03:22:20;154980.63;;;9.36;66.13
5350;BME280;2697;42.144;24.794;2023-04-28T03:24:45;154971.44;;;9.33;66.75
5350;BME280;2697;42.144;24.794;2023-04-28T03:27:11;155000.38;;;9.44;65.53
5350;BME280;2697;42.144;24.794;2023-04-28T03:29:36;154996.44;;;9.42;65.77
5350;BME280;2697;42.144;24.794;2023-04-28T03:32:01;154976.69;;;9.35;66.09
5350;BME280;2697;42.144;24.794;2023-04-28T03:34:27;154971.44;;;9.33;66.10
5350;BME280;2697;42.144;24.794;2023-04-28T03:36:52;154954.34;;;9.26;66.00
5350;BME280;2697;42.144;24.794;2023-04-28T03:39:17;154981.94;;;9.37;65.94
5350;BME280;2697;42.144;24.794;2023-04-28T03:41:43;155000.38;;;9.44;65.99
5350;BME280;2697;42.144;24.794;2023-04-28T03:44:08;155035.88;;;9.58;64.20
5350;BME280;2697;42.144;24.794;2023-04-28T03:46:33;155125.38;;;9.92;63.62
5350;BME280;2697;42.144;24.794;2023-04-28T03:48:59;155212.31;;;10.26;62.94
5350;BME280;2697;42.144;24.794;2023-04-28T03:51:27;155259.72;;;10.44;61.78
5350;BME280;2697;42.144;24.794;2023-04-28T03:53:53;155321.56;;;10.68;61.62
5350;BME280;2697;42.144;24.794;2023-04-28T03:56:18;155367.66;;;10.86;60.84
5350;BME280;2697;42.144;24.794;2023-04-28T03:58:44;155465.13;;;11.24;59.68
5350;BME280;2697;42.144;24.794;2023-04-28T04:01:09;155549.50;;;11.56;58.29
5350;BME280;2697;42.144;24.794;2023-04-28T04:03:35;155687.91;;;12.10;57.21
5350;BME280;2697;42.144;24.794;2023-04-28T04:06:00;155618.09;;;11.83;57.34
5350;BME280;2697;42.144;24.794;2023-04-28T04:08:26;155639.13;;;11.91;56.63
5350;BME280;2697;42.144;24.794;2023-04-28T04:10:52;155677.38;;;12.06;55.72
5350;BME280;2697;42.144;24.794;2023-04-28T04:13:19;155726.16;;;12.24;55.80
5350;BME280;2697;42.144;24.794;2023-04-28T04:15:44;155781.53;;;12.46;55.01
5350;BME280;2697;42.144;24.794;2023-04-28T04:18:10;155797.38;;;12.52;54.08
5350;BME280;2697;42.144;24.794;2023-04-28T04:20:35;155972.84;;;13.20;54.07
5350;BME280;2697;42.144;24.794;2023-04-28T04:23:01;155955.69;;;13.13;52.73
5350;BME280;2697;42.144;24.794;2023-04-28T04:25:27;155881.81;;;12.84;52.96
5350;BME280;2697;42.144;24.794;2023-04-28T04:27:53;156011.13;;;13.34;52.25
5350;BME280;2697;42.144;24.794;2023-04-28T04:30:18;156021.66;;;13.38;51.78
5350;BME280;2697;42.144;24.794;2023-04-28T04:32:44;156098.25;;;13.68;50.40
5350;BME280;2697;42.144;24.794;2023-04-28T04:35:09;156140.47;;;13.84;50.14
5350;BME280;2697;42.144;24.794;2023-04-28T04:37:35;156191.94;;;14.04;49.37
5350;BME280;2697;42.144;24.794;2023-04-28T04:40:00;156119.34;;;13.76;49.85
5350;BME280;2697;42.144;24.794;2023-04-28T04:42:26;156145.75;;;13.86;49.85
5350;BME280;2697;42.144;24.794;2023-04-28T04:44:51;156215.72;;;14.13;49.46
5350;BME280;2697;42.144;24.794;2023-04-28T04:47:17;156272.53;;;14.35;48.64
5350;BME280;2697;42.144;24.794;2023-04-28T04:49:43;156193.25;;;14.05;48.92
5350;BME280;2697;42.144;24.794;2023-04-28T04:52:08;156341.28;;;14.62;46.95
5350;BME280;2697;42.144;24.794;2023-04-28T04:54:34;156341.28;;;14.62;47.72
5350;BME280;2697;42.144;24.794;2023-04-28T04:56:59;156367.69;;;14.72;47.71
5350;BME280;2697;42.144;24.794;2023-04-28T04:59:25;156412.59;;;14.89;46.79
5350;BME280;2697;42.144;24.794;2023-04-28T05:01:51;156345.22;;;14.63;47.18
5350;BME280;2697;42.144;24.794;2023-04-28T05:04:16;156489.25;;;15.19;46.67
5350;BME280;2697;42.144;24.794;2023-04-28T05:06:42;156573.78;;;15.51;45.89
5350;BME280;2697;42.144;24.794;2023-04-28T05:09:07;156489.25;;;15.19;45.89
5350;BME280;2697;42.144;24.794;2023-04-28T05:11:33;156423.16;;;14.93;46.71
5350;BME280;2697;42.144;24.794;2023-04-28T05:13:58;156470.72;;;15.11;46.24
5350;BME280;2697;42.144;24.794;2023-04-28T05:16:23;156597.63;;;15.60;45.81
5350;BME280;2697;42.144;24.794;2023-04-28T05:18:49;156495.81;;;15.21;45.38
5350;BME280;2697;42.144;24.794;2023-04-28T05:21:15;156404.66;;;14.86;45.96
5350;BME280;2697;42.144;24.794;2023-04-28T05:23:40;156386.13;;;14.79;45.93
5350;BME280;2697;42.144;24.794;2023-04-28T05:26:06;156427.09;;;14.95;46.46
5350;BME280;2697;42.144;24.794;2023-04-28T05:28:31;156415.25;;;14.90;46.48
5350;BME280;2697;42.144;24.794;2023-04-28T05:30:57;156474.69;;;15.13;45.90
5350;BME280;2697;42.144;24.794;2023-04-28T05:33:22;156604.22;;;15.63;45.62
5350;BME280;2697;42.144;24.794;2023-04-28T05:35:48;156646.56;;;15.79;44.32
5350;BME280;2697;42.144;24.794;2023-04-28T05:38:13;156544.72;;;15.40;44.88
5350;BME280;2697;42.144;24.794;2023-04-28T05:40:39;156400.69;;;14.85;45.61
5350;BME280;2697;42.144;24.794;2023-04-28T05:43:04;156388.81;;;14.80;46.31
5350;BME280;2697;42.144;24.794;2023-04-28T05:45:30;156431.06;;;14.96;46.39
5350;BME280;2697;42.144;24.794;2023-04-28T05:47:55;156386.13;;;14.79;45.94
5350;BME280;2697;42.144;24.794;2023-04-28T05:50:20;156383.50;;;14.78;45.25
5350;BME280;2697;42.144;24.794;2023-04-28T05:52:46;156279.13;;;14.38;46.63
5350;BME280;2697;42.144;24.794;2023-04-28T05:55:11;156452.22;;;15.04;45.48
5350;BME280;2697;42.144;24.794;2023-04-28T05:57:37;156477.31;;;15.14;45.18
5350;BME280;2697;42.144;24.794;2023-04-28T06:00:02;156719.28;;;16.07;44.17
5350;BME280;2697;42.144;24.794;2023-04-28T06:02:28;157038.16;;;17.30;42.24
5350;BME280;2697;42.144;24.794;2023-04-28T06:04:53;157006.41;;;17.18;41.80
5350;BME280;2697;42.144;24.794;2023-04-28T06:07:19;156965.34;;;17.02;41.38
5350;BME280;2697;42.144;24.794;2023-04-28T06:09:44;156639.94;;;15.77;43.23
5350;BME280;2697;42.144;24.794;2023-04-28T06:12:10;156799.97;;;16.38;42.03
5350;BME280;2697;42.144;24.794;2023-04-28T06:14:35;156970.69;;;17.04;41.73
5350;BME280;2697;42.144;24.794;2023-04-28T06:17:02;156856.84;;;16.60;41.63
5350;BME280;2697;42.144;24.794;2023-04-28T06:19:28;156839.63;;;16.53;43.41
5350;BME280;2697;42.144;24.794;2023-04-28T06:21:53;157173.25;;;17.82;41.82
5350;BME280;2697;42.144;24.794;2023-04-28T06:24:19;157173.25;;;17.82;40.62
5350;BME280;2697;42.144;24.794;2023-04-28T06:26:45;157330.81;;;18.42;39.38
5350;BME280;2697;42.144;24.794;2023-04-28T06:29:10;157210.28;;;17.96;39.56
5350;BME280;2697;42.144;24.794;2023-04-28T06:31:35;157032.88;;;17.28;41.42
5350;BME280;2697;42.144;24.794;2023-04-28T06:34:01;156942.84;;;16.93;41.56
5350;BME280;2697;42.144;24.794;2023-04-28T06:36:26;157052.72;;;17.35;40.25
5350;BME280;2697;42.144;24.794;2023-04-28T06:38:52;156966.69;;;17.02;40.88
5350;BME280;2697;42.144;24.794;2023-04-28T06:41:18;156941.53;;;16.93;42.68
5350;BME280;2697;42.144;24.794;2023-04-28T06:43:43;157193.13;;;17.89;41.49
5350;BME280;2697;42.144;24.794;2023-04-28T06:46:08;157112.28;;;17.58;41.11
5350;BME280;2697;42.144;24.794;2023-04-28T06:48:35;157150.72;;;17.73;40.81
5350;BME280;2697;42.144;24.794;2023-04-28T06:51:01;157097.75;;;17.53;40.09
5350;BME280;2697;42.144;24.794;2023-04-28T06:53:26;157325.53;;;18.40;39.66
5350;BME280;2697;42.144;24.794;2023-04-28T06:55:52;157381.19;;;18.62;38.96
5350;BME280;2697;42.144;24.794;2023-04-28T06:58:17;157702.03;;;19.85;36.64
5350;BME280;2697;42.144;24.794;2023-04-28T07:00:42;157573.34;;;19.35;37.53
5350;BME280;2697;42.144;24.794;2023-04-28T07:03:08;157664.88;;;19.71;37.48
5350;BME280;2697;42.144;24.794;2023-04-28T07:05:33;157920.94;;;20.69;34.69
5350;BME280;2697;42.144;24.794;2023-04-28T07:08:00;157487.22;;;19.02;37.48
5350;BME280;2697;42.144;24.794;2023-04-28T07:10:25;157415.69;;;18.75;37.56
5350;BME280;2697;42.144;24.794;2023-04-28T07:12:51;157383.84;;;18.63;37.39
5350;BME280;2697;42.144;24.794;2023-04-28T07:15:17;157031.53;;;17.27;38.96
5350;BME280;2697;42.144;24.794;2023-04-28T07:17:42;156950.84;;;16.96;39.33
5350;BME280;2697;42.144;24.794;2023-04-28T07:20:08;156851.56;;;16.58;41.32
5350;BME280;2697;42.144;24.794;2023-04-28T07:22:33;156682.28;;;15.93;43.23
5350;BME280;2697;42.144;24.794;2023-04-28T07:24:59;156686.25;;;15.94;41.98
5350;BME280;2697;42.144;24.794;2023-04-28T07:27:24;156598.97;;;15.61;43.50
5350;BME280;2697;42.144;24.794;2023-04-28T07:29:50;156643.91;;;15.78;43.08
5350;BME280;2697;42.144;24.794;2023-04-28T07:32:15;156505.06;;;15.25;44.58
5350;BME280;2697;42.144;24.794;2023-04-28T07:34:41;156592.31;;;15.58;44.48
5350;BME280;2697;42.144;24.794;2023-04-28T07:37:06;156663.75;;;15.86;43.89
5350;BME280;2697;42.144;24.794;2023-04-28T07:39:32;156651.84;;;15.81;42.81
5350;BME280;2697;42.144;24.794;2023-04-28T07:41:59;156589.69;;;15.57;44.25
5350;BME280;2697;42.144;24.794;2023-04-28T07:44:24;156515.66;;;15.29;44.19
5350;BME280;2697;42.144;24.794;2023-04-28T07:46:50;156526.22;;;15.33;44.02
5350;BME280;2697;42.144;24.794;2023-04-28T07:49:15;156563.25;;;15.47;43.95
5350;BME280;2697;42.144;24.794;2023-04-28T07:51:41;156542.09;;;15.39;43.34
5350;BME280;2697;42.144;24.794;2023-04-28T07:54:06;156584.41;;;15.55;44.22
5350;BME280;2697;42.144;24.794;2023-04-28T07:56:32;156692.84;;;15.97;44.35
5350;BME280;2697;42.144;24.794;2023-04-28T07:58:57;156602.91;;;15.62;44.83
5350;BME280;2697;42.144;24.794;2023-04-28T08:01:22;156568.53;;;15.49;48.53
5350;BME280;2697;42.144;24.794;2023-04-28T08:03:48;156638.63;;;15.76;48.77
5350;BME280;2697;42.144;24.794;2023-04-28T08:06:13;156601.59;;;15.62;49.50
5350;BME280;2697;42.144;24.794;2023-04-28T08:08:39;156597.63;;;15.60;49.64
5350;BME280;2697;42.144;24.794;2023-04-28T08:11:04;156634.69;;;15.75;49.50
5350;BME280;2697;42.144;24.794;2023-04-28T08:13:30;156661.13;;;15.85;45.85
5350;BME280;2697;42.144;24.794;2023-04-28T08:15:55;156692.84;;;15.97;46.06
5350;BME280;2697;42.144;24.794;2023-04-28T08:18:22;156637.31;;;15.76;45.01
5350;BME280;2697;42.144;24.794;2023-04-28T08:20:47;156597.63;;;15.60;44.62
5350;BME280;2697;42.144;24.794;2023-04-28T08:23:12;156531.50;;;15.35;44.71
5350;BME280;2697;42.144;24.794;2023-04-28T08:25:38;156620.13;;;15.69;44.70
5350;BME280;2697;42.144;24.794;2023-04-28T08:28:03;156649.19;;;15.80;45.91
5350;BME280;2697;42.144;24.794;2023-04-28T08:30:30;156702.06;;;16.01;44.21
5350;BME280;2697;42.144;24.794;2023-04-28T08:32:56;156733.84;;;16.13;44.22
5350;BME280;2697;42.144;24.794;2023-04-28T08:35:21;156788.06;;;16.34;44.52
5350;BME280;2697;42.144;24.794;2023-04-28T08:37:47;156772.16;;;16.28;46.41
5350;BME280;2697;42.144;24.794;2023-04-28T08:40:15;156714.00;;;16.05;47.73
5350;BME280;2697;42.144;24.794;2023-04-28T08:42:40;156762.91;;;16.24;47.20
5350;BME280;2697;42.144;24.794;2023-04-28T08:45:06;156728.56;;;16.11;45.90
5350;BME280;2697;42.144;24.794;2023-04-28T08:47:34;156753.69;;;16.20;44.06
5350;BME280;2697;42.144;24.794;2023-04-28T08:50:04;156743.06;;;16.16;44.48
5350;BME280;2697;42.144;24.794;2023-04-28T08:52:30;156856.84;;;16.60;47.76
5350;BME280;2697;42.144;24.794;2023-04-28T08:55:00;156846.22;;;16.56;46.26
5350;BME280;2697;42.144;24.794;2023-04-28T08:57:37;156798.59;;;16.38;47.76
5350;BME280;2697;42.144;24.794;2023-04-28T09:00:03;156696.78;;;15.99;50.13
5350;BME280;2697;42.144;24.794;2023-04-28T09:02:29;156546.03;;;15.40;50.12
5350;BME280;2697;42.144;24.794;2023-04-28T09:04:54;156669.03;;;15.88;49.10
5350;BME280;2697;42.144;24.794;2023-04-28T09:07:20;156667.72;;;15.87;48.91
5350;BME280;2697;42.144;24.794;2023-04-28T09:09:46;156634.69;;;15.75;51.75
5350;BME280;2697;42.144;24.794;2023-04-28T09:12:11;156728.56;;;16.11;50.36
5350;BME280;2697;42.144;24.794;2023-04-28T09:14:37;156698.09;;;15.99;52.19
5350;BME280;2697;42.144;24.794;2023-04-28T09:17:13;156740.44;;;16.15;51.10
5350;BME280;2697;42.144;24.794;2023-04-28T09:19:39;156665.06;;;15.86;53.02
5350;BME280;2697;42.144;24.794;2023-04-28T09:22:07;156753.69;;;16.20;49.55
5350;BME280;2697;42.144;24.794;2023-04-28T09:24:34;156785.41;;;16.33;49.14
5350;BME280;2697;42.144;24.794;2023-04-28T09:27:02;156838.31;;;16.53;50.08
5350;BME280;2697;42.144;24.794;2023-04-28T09:29:32;156809.22;;;16.42;53.56
5350;BME280;2697;42.144;24.794;2023-04-28T09:32:21;156938.91;;;16.92;49.02
5350;BME280;2697;42.144;24.794;2023-04-28T09:34:49;156968.00;;;17.03;50.74
5350;BME280;2697;42.144;24.794;2023-04-28T09:39:40;156949.50;;;16.96;48.10
5350;BME280;2697;42.144;24.794;2023-04-28T09:42:06;156942.84;;;16.93;47.64
5350;BME280;2697;42.144;24.794;2023-04-28T09:44:31;156907.16;;;16.79;47.48
5350;BME280;2697;42.144;24.794;2023-04-28T09:46:56;156854.19;;;16.59;48.21
5350;BME280;2697;42.144;24.794;2023-04-28T09:49:22;156830.38;;;16.50;46.87
5350;BME280;2697;42.144;24.794;2023-04-28T09:51:47;156691.50;;;15.96;48.54
5350;BME280;2697;42.144;24.794;2023-04-28T09:54:14;156646.56;;;15.79;50.59
5350;BME280;2697;42.144;24.794;2023-04-28T09:56:41;156833.03;;;16.51;48.92
5350;BME280;2697;42.144;24.794;2023-04-28T09:59:08;156856.84;;;16.60;49.08
5350;BME280;2697;42.144;24.794;2023-04-28T10:01:39;156961.41;;;17.00;48.14
5350;BME280;2697;42.144;24.794;2023-04-28T10:04:06;156888.63;;;16.72;47.21
5350;BME280;2697;42.144;24.794;2023-04-28T10:06:35;156899.25;;;16.76;47.32
5350;BME280;2697;42.144;24.794;2023-04-28T10:09:01;157005.06;;;17.17;47.92
5350;BME280;2697;42.144;24.794;2023-04-28T10:11:27;157036.81;;;17.29;49.79
5350;BME280;2697;42.144;24.794;2023-04-28T10:13:53;156986.53;;;17.10;47.06
5350;BME280;2697;42.144;24.794;2023-04-28T10:16:19;156936.25;;;16.91;48.00
5350;BME280;2697;42.144;24.794;2023-04-28T10:18:45;156874.06;;;16.67;48.62
5350;BME280;2697;42.144;24.794;2023-04-28T10:21:11;157038.16;;;17.30;48.64
5350;BME280;2697;42.144;24.794;2023-04-28T10:23:59;157126.84;;;17.64;45.73
5350;BME280;2697;42.144;24.794;2023-04-28T10:27:01;157117.59;;;17.60;45.03
5350;BME280;2697;42.144;24.794;2023-04-28T10:29:26;157096.41;;;17.52;44.49
5350;BME280;2697;42.144;24.794;2023-04-28T10:32:28;157211.66;;;17.97;43.78
5350;BME280;2697;42.144;24.794;2023-04-28T10:38:09;157236.81;;;18.06;44.89
5350;BME280;2697;42.144;24.794;2023-04-28T10:40:43;157299.03;;;18.30;44.17
5350;BME280;2697;42.144;24.794;2023-04-28T10:43:10;157333.50;;;18.43;42.70
5350;BME280;2697;42.144;24.794;2023-04-28T10:48:18;157014.31;;;17.21;43.45
5350;BME280;2697;42.144;24.794;2023-04-28T10:56:13;156981.25;;;17.08;45.64
5350;BME280;2697;42.144;24.794;2023-04-28T10:58:41;157010.34;;;17.19;44.80
5350;BME280;2697;42.144;24.794;2023-04-28T11:06:41;157238.13;;;18.07;42.66
5350;BME280;2697;42.144;24.794;2023-04-28T11:17:08;157379.81;;;18.61;40.27
5350;BME280;2697;42.144;24.794;2023-04-28T11:19:40;157336.16;;;18.44;42.77
5350;BME280;2697;42.144;24.794;2023-04-28T11:22:17;157330.81;;;18.42;41.26
5350;BME280;2697;42.144;24.794;2023-04-28T11:24:56;157383.84;;;18.63;41.81
5350;BME280;2697;42.144;24.794;2023-04-28T11:27:23;157580.00;;;19.38;40.55
5350;BME280;2697;42.144;24.794;2023-04-28T11:29:48;157418.31;;;18.76;41.51
5350;BME280;2697;42.144;24.794;2023-04-28T11:32:14;157524.31;;;19.17;40.04
5350;BME280;2697;42.144;24.794;2023-04-28T11:34:40;157577.38;;;19.37;40.86
5350;BME280;2697;42.144;24.794;2023-04-28T11:37:06;157733.84;;;19.97;39.11
5350;BME280;2697;42.144;24.794;2023-04-28T11:39:33;157630.44;;;19.57;38.56
5350;BME280;2697;42.144;24.794;2023-04-28T11:42:01;157645.00;;;19.63;39.15
5350;BME280;2697;42.144;24.794;2023-04-28T11:44:30;157680.81;;;19.77;41.08
5350;BME280;2697;42.144;24.794;2023-04-28T11:46:57;157602.56;;;19.47;40.05
5350;BME280;2697;42.144;24.794;2023-04-28T11:49:27;157462.06;;;18.93;40.34
5350;BME280;2697;42.144;24.794;2023-04-28T11:51:54;157523.00;;;19.16;41.12
5350;BME280;2697;42.144;24.794;2023-04-28T11:54:26;157405.09;;;18.71;40.82
5350;BME280;2697;42.144;24.794;2023-04-28T11:56:52;157460.72;;;18.92;41.70
5350;BME280;2697;42.144;24.794;2023-04-28T11:59:23;157363.97;;;18.55;41.38
5350;BME280;2697;42.144;24.794;2023-04-28T12:01:59;157317.59;;;18.37;41.29
5350;BME280;2697;42.144;24.794;2023-04-28T12:09:29;157341.44;;;18.46;41.42
5350;BME280;2697;42.144;24.794;2023-04-28T12:11:57;157314.94;;;18.36;41.31
5350;BME280;2697;42.144;24.794;2023-04-28T12:14:23;157454.13;;;18.90;40.49
5350;BME280;2697;42.144;24.794;2023-04-28T12:16:49;157508.44;;;19.11;39.71
5350;BME280;2697;42.144;24.794;2023-04-28T12:19:15;157446.13;;;18.87;40.61
5350;BME280;2697;42.144;24.794;2023-04-28T12:21:41;157417.00;;;18.75;39.94
5350;BME280;2697;42.144;24.794;2023-04-28T12:26:40;157558.81;;;19.30;40.87
5350;BME280;2697;42.144;24.794;2023-04-28T12:29:06;157434.25;;;18.82;40.47
5350;BME280;2697;42.144;24.794;2023-04-28T12:31:47;157501.81;;;19.08;40.33
5350;BME280;2697;42.144;24.794;2023-04-28T12:34:12;157422.28;;;18.77;40.94
5350;BME280;2697;42.144;24.794;2023-04-28T12:36:38;157353.34;;;18.51;40.39
5350;BME280;2697;42.144;24.794;2023-04-28T12:39:03;157337.47;;;18.45;41.40
5350;BME280;2697;42.144;24.794;2023-04-28T12:41:29;157367.94;;;18.57;40.50
5350;BME280;2697;42.144;24.794;2023-04-28T12:43:54;157297.72;;;18.30;42.05
5350;BME280;2697;42.144;24.794;2023-04-28T12:46:20;157306.97;;;18.33;40.16
5350;BME280;2697;42.144;24.794;2023-04-28T12:48:45;157312.31;;;18.35;40.25
5350;BME280;2697;42.144;24.794;2023-04-28T12:51:11;157287.16;;;18.26;41.99
5350;BME280;2697;42.144;24.794;2023-04-28T12:53:36;157206.31;;;17.94;41.59
5350;BME280;2697;42.144;24.794;2023-04-28T12:56:02;157166.63;;;17.79;42.26
5350;BME280;2697;42.144;24.794;2023-04-28T12:58:27;157264.63;;;18.17;41.22
5350;BME280;2697;42.144;24.794;2023-04-28T13:00:52;157352.00;;;18.50;40.82
5350;BME280;2697;42.144;24.794;2023-04-28T13:03:18;157394.47;;;18.67;41.56
5350;BME280;2697;42.144;24.794;2023-04-28T13:05:45;157291.09;;;18.27;41.65
5350;BME280;2697;42.144;24.794;2023-04-28T13:08:10;157362.63;;;18.55;41.07
5350;BME280;2697;42.144;24.794;2023-04-28T13:10:37;157329.50;;;18.42;40.52
5350;BME280;2697;42.144;24.794;2023-04-28T13:13:03;157365.28;;;18.56;42.41
5350;BME280;2697;42.144;24.794;2023-04-28T13:15:30;157452.81;;;18.89;39.67
5350;BME280;2697;42.144;24.794;2023-04-28T13:17:55;157418.31;;;18.76;41.12
5350;BME280;2697;42.144;24.794;2023-04-28T13:20:21;157479.31;;;18.99;38.94
5350;BME280;2697;42.144;24.794;2023-04-28T13:22:47;157391.81;;;18.66;39.23
5350;BME280;2697;42.144;24.794;2023-04-28T13:25:12;157415.69;;;18.75;40.43
5350;BME280;2697;42.144;24.794;2023-04-28T13:27:38;157399.75;;;18.69;41.80
5350;BME280;2697;42.144;24.794;2023-04-28T13:30:04;157397.13;;;18.68;42.26
5350;BME280;2697;42.144;24.794;2023-04-28T13:32:29;157370.56;;;18.58;40.48